sensor_id;sensor_type;location;lat;lon;timestamp;pressure;altitude;pressure_sealevel;temperature;humidity
51526;BME280;37611;51.794;21.590;2023-04-28T00:01:58;100446.42;;;2.36;87.07
51526;BME280;37611;51.794;21.590;2023-04-28T00:06:00;100446.64;;;2.33;87.05
51526;BME280;37611;51.794;21.590;2023-04-28T00:10:02;100448.50;;;2.31;88.04
51526;BME280;37611;51.794;21.590;2023-04-28T00:14:04;100445.13;;;2.32;88.22
51526;BME280;37611;51.794;21.590;2023-04-28T00:18:06;100449.73;;;2.25;87.66
51526;BME280;37611;51.794;21.590;2023-04-28T00:22:07;100447.96;;;2.10;86.84
51526;BME280;37611;51.794;21.590;2023-04-28T00:26:10;100449.60;;;1.93;87.05
51526;BME280;37611;51.794;21.590;2023-04-28T00:30:15;100449.86;;;1.82;87.54
51526;BME280;37611;51.794;21.590;2023-04-28T00:34:16;100448.21;;;1.78;88.18
51526;BME280;37611;51.794;21.590;2023-04-28T00:38:23;100450.73;;;1.76;88.64
51526;BME280;37611;51.794;21.590;2023-04-28T00:42:25;100448.81;;;1.73;88.44
51526;BME280;37611;51.794;21.590;2023-04-28T00:46:29;100450.84;;;1.68;89.04
51526;BME280;37611;51.794;21.590;2023-04-28T00:50:32;100451.40;;;1.70;89.44
51526;BME280;37611;51.794;21.590;2023-04-28T00:54:35;100451.98;;;1.72;89.63
51526;BME280;37611;51.794;21.590;2023-04-28T00:58:37;100450.96;;;1.69;89.43
51526;BME280;37611;51.794;21.590;2023-04-28T01:02:39;100452.63;;;1.57;88.71
51526;BME280;37611;51.794;21.590;2023-04-28T01:06:41;100451.66;;;1.46;89.19
51526;BME280;37611;51.794;21.590;2023-04-28T01:10:44;100453.24;;;1.39;89.48
51526;BME280;37611;51.794;21.590;2023-04-28T01:14:47;100459.80;;;1.33;89.62
51526;BME280;37611;51.794;21.590;2023-04-28T01:18:50;100460.02;;;1.32;89.86
51526;BME280;37611;51.794;21.590;2023-04-28T01:22:52;100462.02;;;1.30;90.03
51526;BME280;37611;51.794;21.590;2023-04-28T01:26:54;100462.67;;;1.28;90.30
51526;BME280;37611;51.794;21.590;2023-04-28T01:30:56;100465.50;;;1.19;90.31
51526;BME280;37611;51.794;21.590;2023-04-28T01:34:57;100464.75;;;1.11;90.02
51526;BME280;37611;51.794;21.590;2023-04-28T01:38:59;100463.77;;;0.97;89.98
51526;BME280;37611;51.794;21.590;2023-04-28T01:43:01;100464.55;;;0.88;90.60
51526;BME280;37611;51.794;21.590;2023-04-28T01:47:04;100467.52;;;0.84;90.88
51526;BME280;37611;51.794;21.590;2023-04-28T01:51:06;100473.95;;;0.84;91.48
51526;BME280;37611;51.794;21.590;2023-04-28T01:55:08;100471.29;;;0.85;91.64
51526;BME280;37611;51.794;21.590;2023-04-28T01:59:10;100471.98;;;0.88;92.02
51526;BME280;37611;51.794;21.590;2023-04-28T02:03:11;100468.91;;;0.91;91.83
51526;BME280;37611;51.794;21.590;2023-04-28T02:07:13;100470.39;;;0.85;91.68
51526;BME280;37611;51.794;21.590;2023-04-28T02:11:15;100474.52;;;0.83;91.95
51526;BME280;37611;51.794;21.590;2023-04-28T02:15:17;100474.99;;;0.80;92.08
51526;BME280;37611;51.794;21.590;2023-04-28T02:19:20;100475.50;;;0.77;91.95
51526;BME280;37611;51.794;21.590;2023-04-28T02:23:22;100473.80;;;0.66;91.83
51526;BME280;37611;51.794;21.590;2023-04-28T02:27:24;100476.92;;;0.62;92.52
51526;BME280;37611;51.794;21.590;2023-04-28T02:31:26;100481.44;;;0.55;92.40
51526;BME280;37611;51.794;21.590;2023-04-28T02:35:27;100479.55;;;0.51;92.59
51526;BME280;37611;51.794;21.590;2023-04-28T02:39:29;100478.31;;;0.48;92.42
51526;BME280;37611;51.794;21.590;2023-04-28T02:43:32;100479.27;;;0.46;92.81
51526;BME280;37611;51.794;21.590;2023-04-28T02:47:34;100478.89;;;0.40;92.22
51526;BME280;37611;51.794;21.590;2023-04-28T02:51:36;100479.79;;;0.32;92.41
51526;BME280;37611;51.794;21.590;2023-04-28T02:55:38;100480.65;;;0.29;92.88
51526;BME280;37611;51.794;21.590;2023-04-28T02:59:40;100481.52;;;0.32;93.59
51526;BME280;37611;51.794;21.590;2023-04-28T03:03:42;100483.38;;;0.40;94.22
51526;BME280;37611;51.794;21.590;2023-04-28T03:07:44;100484.08;;;0.43;94.12
51526;BME280;37611;51.794;21.590;2023-04-28T03:11:46;100484.14;;;0.42;94.45
51526;BME280;37611;51.794;21.590;2023-04-28T03:15:50;100483.08;;;0.35;95.03
51526;BME280;37611;51.794;21.590;2023-04-28T03:19:53;100483.56;;;0.33;94.94
51526;BME280;37611;51.794;21.590;2023-04-28T03:23:57;100487.24;;;0.35;94.33
51526;BME280;37611;51.794;21.590;2023-04-28T03:27:58;100491.30;;;0.26;93.77
51526;BME280;37611;51.794;21.590;2023-04-28T03:32:02;100493.28;;;0.13;94.23
51526;BME280;37611;51.794;21.590;2023-04-28T03:36:05;100493.41;;;0.07;94.64
51526;BME280;37611;51.794;21.590;2023-04-28T03:40:07;100494.61;;;0.07;94.77
51526;BME280;37611;51.794;21.590;2023-04-28T03:44:09;100496.11;;;0.12;95.00
51526;BME280;37611;51.794;21.590;2023-04-28T03:48:11;100497.45;;;0.20;95.50
51526;BME280;37611;51.794;21.590;2023-04-28T03:52:13;100496.79;;;0.37;95.51
51526;BME280;37611;51.794;21.590;2023-04-28T03:56:15;100501.80;;;0.57;95.85
51526;BME280;37611;51.794;21.590;2023-04-28T04:00:17;100500.06;;;0.85;95.98
51526;BME280;37611;51.794;21.590;2023-04-28T04:04:19;100501.36;;;1.10;95.45
51526;BME280;37611;51.794;21.590;2023-04-28T04:08:21;100503.17;;;1.32;95.23
51526;BME280;37611;51.794;21.590;2023-04-28T04:12:22;100503.30;;;1.52;95.96
51526;BME280;37611;51.794;21.590;2023-04-28T04:16:24;100505.10;;;1.82;95.81
51526;BME280;37611;51.794;21.590;2023-04-28T04:20:26;100508.74;;;2.16;95.29
51526;BME280;37611;51.794;21.590;2023-04-28T04:24:28;100514.52;;;2.58;94.78
51526;BME280;37611;51.794;21.590;2023-04-28T04:28:30;100515.06;;;3.25;94.10
51526;BME280;37611;51.794;21.590;2023-04-28T04:32:31;100516.78;;;3.98;92.72
51526;BME280;37611;51.794;21.590;2023-04-28T04:36:34;100520.33;;;4.55;91.23
51526;BME280;37611;51.794;21.590;2023-04-28T04:40:35;100517.63;;;4.93;90.26
51526;BME280;37611;51.794;21.590;2023-04-28T04:44:37;100522.83;;;5.32;90.66
51526;BME280;37611;51.794;21.590;2023-04-28T04:48:39;100514.77;;;5.87;88.78
51526;BME280;37611;51.794;21.590;2023-04-28T04:52:44;100518.86;;;6.70;87.96
51526;BME280;37611;51.794;21.590;2023-04-28T04:56:46;100516.77;;;7.09;84.05
51526;BME280;37611;51.794;21.590;2023-04-28T05:00:47;100518.45;;;7.50;83.13
51526;BME280;37611;51.794;21.590;2023-04-28T05:04:49;100515.11;;;7.95;80.93
51526;BME280;37611;51.794;21.590;2023-04-28T05:08:51;100512.23;;;8.35;80.97
51526;BME280;37611;51.794;21.590;2023-04-28T05:12:53;100512.57;;;8.40;79.29
51526;BME280;37611;51.794;21.590;2023-04-28T05:16:54;100512.71;;;8.57;77.01
51526;BME280;37611;51.794;21.590;2023-04-28T05:20:57;100518.64;;;8.76;76.75
51526;BME280;37611;51.794;21.590;2023-04-28T05:24:59;100521.83;;;8.97;77.17
51526;BME280;37611;51.794;21.590;2023-04-28T05:29:01;100520.02;;;8.91;76.17
51526;BME280;37611;51.794;21.590;2023-04-28T05:33:02;100529.13;;;8.55;76.23
51526;BME280;37611;51.794;21.590;2023-04-28T05:37:04;100530.20;;;8.37;77.39
51526;BME280;37611;51.794;21.590;2023-04-28T05:41:06;100530.09;;;8.45;76.67
51526;BME280;37611;51.794;21.590;2023-04-28T05:45:08;100526.89;;;8.52;75.98
51526;BME280;37611;51.794;21.590;2023-04-28T05:49:10;100530.42;;;8.86;76.46
51526;BME280;37611;51.794;21.590;2023-04-28T05:53:12;100532.00;;;9.27;75.24
51526;BME280;37611;51.794;21.590;2023-04-28T05:57:14;100529.77;;;9.69;74.58
51526;BME280;37611;51.794;21.590;2023-04-28T06:01:16;100532.56;;;9.69;73.03
51526;BME280;37611;51.794;21.590;2023-04-28T06:05:18;100530.45;;;9.99;72.29
51526;BME280;37611;51.794;21.590;2023-04-28T06:09:20;100536.63;;;9.91;71.28
51526;BME280;37611;51.794;21.590;2023-04-28T06:13:22;100536.80;;;9.95;71.11
51526;BME280;37611;51.794;21.590;2023-04-28T06:17:23;100536.75;;;10.47;70.76
51526;BME280;37611;51.794;21.590;2023-04-28T06:21:25;100539.20;;;10.81;68.35
51526;BME280;37611;51.794;21.590;2023-04-28T06:25:28;100542.22;;;10.98;68.83
51526;BME280;37611;51.794;21.590;2023-04-28T06:29:30;100539.59;;;11.27;68.35
51526;BME280;37611;51.794;21.590;2023-04-28T06:33:32;100538.12;;;11.53;66.40
51526;BME280;37611;51.794;21.590;2023-04-28T06:37:34;100545.09;;;11.54;64.31
51526;BME280;37611;51.794;21.590;2023-04-28T06:41:35;100548.36;;;11.60;63.95
51526;BME280;37611;51.794;21.590;2023-04-28T06:45:37;100548.27;;;11.66;62.71
51526;BME280;37611;51.794;21.590;2023-04-28T06:49:39;100552.75;;;11.86;62.72
51526;BME280;37611;51.794;21.590;2023-04-28T06:53:41;100556.55;;;12.07;61.87
51526;BME280;37611;51.794;21.590;2023-04-28T06:57:43;100549.35;;;12.30;61.54
51526;BME280;37611;51.794;21.590;2023-04-28T07:01:45;100552.73;;;12.51;59.55
51526;BME280;37611;51.794;21.590;2023-04-28T07:05:47;100548.56;;;12.67;58.74
51526;BME280;37611;51.794;21.590;2023-04-28T07:09:49;100550.02;;;12.84;56.65
51526;BME280;37611;51.794;21.590;2023-04-28T07:13:50;100549.36;;;12.90;55.44
51526;BME280;37611;51.794;21.590;2023-04-28T07:17:55;100549.90;;;12.96;53.51
51526;BME280;37611;51.794;21.590;2023-04-28T07:21:57;100551.38;;;13.09;51.49
51526;BME280;37611;51.794;21.590;2023-04-28T07:25:59;100546.73;;;13.15;50.31
51526;BME280;37611;51.794;21.590;2023-04-28T07:30:01;100540.80;;;12.94;50.22
51526;BME280;37611;51.794;21.590;2023-04-28T07:34:03;100536.39;;;12.69;49.53
51526;BME280;37611;51.794;21.590;2023-04-28T07:38:05;100536.36;;;12.38;48.44
51526;BME280;37611;51.794;21.590;2023-04-28T07:42:07;100533.38;;;12.34;48.27
51526;BME280;37611;51.794;21.590;2023-04-28T07:46:09;100530.63;;;12.28;48.31
51526;BME280;37611;51.794;21.590;2023-04-28T07:50:11;100525.17;;;12.33;48.76
51526;BME280;37611;51.794;21.590;2023-04-28T07:54:13;100522.04;;;12.55;49.00
51526;BME280;37611;51.794;21.590;2023-04-28T07:58:15;100520.65;;;12.67;48.81
51526;BME280;37611;51.794;21.590;2023-04-28T08:02:17;100517.15;;;12.84;48.88
51526;BME280;37611;51.794;21.590;2023-04-28T08:06:21;100523.04;;;12.87;45.10
51526;BME280;37611;51.794;21.590;2023-04-28T08:10:22;100516.34;;;12.90;45.21
51526;BME280;37611;51.794;21.590;2023-04-28T08:14:24;100510.44;;;13.26;45.67
51526;BME280;37611;51.794;21.590;2023-04-28T08:18:27;100507.84;;;13.36;43.75
51526;BME280;37611;51.794;21.590;2023-04-28T08:22:29;100505.38;;;13.22;43.71
51526;BME280;37611;51.794;21.590;2023-04-28T08:26:30;100509.90;;;13.07;43.97
51526;BME280;37611;51.794;21.590;2023-04-28T08:30:32;100509.88;;;12.79;45.04
51526;BME280;37611;51.794;21.590;2023-04-28T08:34:34;100506.94;;;12.45;45.00
51526;BME280;37611;51.794;21.590;2023-04-28T08:38:37;100504.91;;;12.46;44.81
51526;BME280;37611;51.794;21.590;2023-04-28T08:42:40;100497.34;;;12.64;43.95
51526;BME280;37611;51.794;21.590;2023-04-28T08:46:44;100500.98;;;12.38;43.77
51526;BME280;37611;51.794;21.590;2023-04-28T08:50:51;100499.63;;;12.24;42.70
51526;BME280;37611;51.794;21.590;2023-04-28T08:54:53;100497.83;;;12.04;43.71
51526;BME280;37611;51.794;21.590;2023-04-28T08:58:56;100490.27;;;12.15;43.69
51526;BME280;37611;51.794;21.590;2023-04-28T09:02:58;100488.98;;;12.28;43.16
51526;BME280;37611;51.794;21.590;2023-04-28T09:07:00;100488.29;;;12.44;43.53
51526;BME280;37611;51.794;21.590;2023-04-28T09:11:10;100482.33;;;12.70;42.06
51526;BME280;37611;51.794;21.590;2023-04-28T09:15:36;100478.70;;;13.08;40.75
51526;BME280;37611;51.794;21.590;2023-04-28T09:19:39;100477.76;;;13.36;39.62
51526;BME280;37611;51.794;21.590;2023-04-28T09:23:47;100478.27;;;13.40;38.34
51526;BME280;37611;51.794;21.590;2023-04-28T09:27:49;100477.09;;;13.18;37.94
51526;BME280;37611;51.794;21.590;2023-04-28T09:31:51;100472.71;;;13.10;38.51
51526;BME280;37611;51.794;21.590;2023-04-28T09:35:54;100466.69;;;13.03;38.26
51526;BME280;37611;51.794;21.590;2023-04-28T09:40:01;100465.98;;;12.98;38.24
51526;BME280;37611;51.794;21.590;2023-04-28T09:48:12;100460.08;;;12.94;39.13
51526;BME280;37611;51.794;21.590;2023-04-28T09:52:13;100452.37;;;13.19;38.74
51526;BME280;37611;51.794;21.590;2023-04-28T09:56:15;100449.63;;;13.26;38.09
51526;BME280;37611;51.794;21.590;2023-04-28T10:00:21;100446.27;;;13.33;38.82
51526;BME280;37611;51.794;21.590;2023-04-28T10:04:23;100437.35;;;13.56;37.91
51526;BME280;37611;51.794;21.590;2023-04-28T10:08:26;100436.20;;;13.55;38.31
51526;BME280;37611;51.794;21.590;2023-04-28T10:12:28;100432.53;;;13.52;38.50
51526;BME280;37611;51.794;21.590;2023-04-28T10:16:30;100431.77;;;13.32;38.82
51526;BME280;37611;51.794;21.590;2023-04-28T10:20:35;100422.52;;;13.24;38.36
51526;BME280;37611;51.794;21.590;2023-04-28T10:25:35;100418.66;;;13.04;37.95
51526;BME280;37611;51.794;21.590;2023-04-28T10:29:12;100419.42;;;12.86;38.62
51526;BME280;37611;51.794;21.590;2023-04-28T10:37:15;100411.79;;;12.90;38.67
51526;BME280;37611;51.794;21.590;2023-04-28T10:41:30;100404.84;;;12.77;37.83
51526;BME280;37611;51.794;21.590;2023-04-28T10:46:05;100402.89;;;12.69;38.25
51526;BME280;37611;51.794;21.590;2023-04-28T10:50:08;100398.44;;;12.59;38.79
51526;BME280;37611;51.794;21.590;2023-04-28T10:54:13;100391.31;;;12.77;39.21
51526;BME280;37611;51.794;21.590;2023-04-28T10:58:29;100386.65;;;13.02;38.18
51526;BME280;37611;51.794;21.590;2023-04-28T11:02:38;100383.67;;;13.24;36.89
51526;BME280;37611;51.794;21.590;2023-04-28T11:06:42;100381.02;;;13.46;35.45
51526;BME280;37611;51.794;21.590;2023-04-28T11:11:21;100379.89;;;13.59;34.47
51526;BME280;37611;51.794;21.590;2023-04-28T11:15:22;100376.27;;;13.63;34.27
51526;BME280;37611;51.794;21.590;2023-04-28T11:19:26;100379.93;;;13.43;35.05
51526;BME280;37611;51.794;21.590;2023-04-28T11:23:30;100375.23;;;13.41;35.56
51526;BME280;37611;51.794;21.590;2023-04-28T11:27:32;100376.09;;;13.53;35.56
51526;BME280;37611;51.794;21.590;2023-04-28T11:31:35;100375.26;;;13.32;35.10
51526;BME280;37611;51.794;21.590;2023-04-28T11:35:40;100373.03;;;13.18;36.13
51526;BME280;37611;51.794;21.590;2023-04-28T11:39:42;100368.73;;;13.43;36.68
51526;BME280;37611;51.794;21.590;2023-04-28T11:43:44;100368.91;;;13.72;36.12
51526;BME280;37611;51.794;21.590;2023-04-28T11:47:46;100366.75;;;13.81;35.56
51526;BME280;37611;51.794;21.590;2023-04-28T11:51:48;100365.83;;;13.75;35.67
51526;BME280;37611;51.794;21.590;2023-04-28T11:56:04;100357.14;;;13.85;35.23
51526;BME280;37611;51.794;21.590;2023-04-28T12:00:13;100350.11;;;14.01;35.30
51526;BME280;37611;51.794;21.590;2023-04-28T12:04:30;100351.58;;;13.93;33.98
51526;BME280;37611;51.794;21.590;2023-04-28T12:08:32;100348.87;;;14.10;35.86
51526;BME280;37611;51.794;21.590;2023-04-28T12:12:34;100345.90;;;14.32;34.97
51526;BME280;37611;51.794;21.590;2023-04-28T12:16:38;100343.73;;;14.21;35.07
51526;BME280;37611;51.794;21.590;2023-04-28T12:20:43;100340.88;;;14.33;34.89
51526;BME280;37611;51.794;21.590;2023-04-28T12:24:45;100327.14;;;14.51;35.19
51526;BME280;37611;51.794;21.590;2023-04-28T12:28:47;100321.06;;;14.43;34.13
51526;BME280;37611;51.794;21.590;2023-04-28T12:32:49;100313.36;;;14.43;35.34
51526;BME280;37611;51.794;21.590;2023-04-28T12:36:51;100311.14;;;14.59;35.04
51526;BME280;37611;51.794;21.590;2023-04-28T12:40:53;100302.61;;;14.49;34.91
51526;BME280;37611;51.794;21.590;2023-04-28T12:44:55;100300.85;;;14.46;35.59
51526;BME280;37611;51.794;21.590;2023-04-28T12:48:57;100300.21;;;14.52;35.36
51526;BME280;37611;51.794;21.590;2023-04-28T12:52:59;100296.84;;;14.61;34.67
51526;BME280;37611;51.794;21.590;2023-04-28T12:57:03;100292.91;;;14.43;33.99
51526;BME280;37611;51.794;21.590;2023-04-28T13:01:05;100287.77;;;14.26;34.58
51526;BME280;37611;51.794;21.590;2023-04-28T13:05:07;100285.36;;;14.39;34.86
51526;BME280;37611;51.794;21.590;2023-04-28T13:09:13;100277.94;;;14.53;34.84
51526;BME280;37611;51.794;21.590;2023-04-28T13:13:15;100275.54;;;14.59;34.45
51526;BME280;37611;51.794;21.590;2023-04-28T13:17:17;100274.93;;;14.72;34.61
51526;BME280;37611;51.794;21.590;2023-04-28T13:21:19;100272.60;;;14.69;33.76
51526;BME280;37611;51.794;21.590;2023-04-28T13:25:20;100269.13;;;14.68;34.57
51526;BME280;37611;51.794;21.590;2023-04-28T13:29:22;100272.70;;;14.78;33.97
51526;BME280;37611;51.794;21.590;2023-04-28T13:33:24;100271.00;;;14.50;33.94
51526;BME280;37611;51.794;21.590;2023-04-28T13:37:31;100269.48;;;14.48;34.04
51526;BME280;37611;51.794;21.590;2023-04-28T13:41:33;100267.60;;;14.33;33.94
51526;BME280;37611;51.794;21.590;2023-04-28T13:45:35;100262.35;;;14.26;34.79
51526;BME280;37611;51.794;21.590;2023-04-28T13:49:37;100258.89;;;14.41;34.48
51526;BME280;37611;51.794;21.590;2023-04-28T13:53:40;100253.94;;;14.42;34.32
51526;BME280;37611;51.794;21.590;2023-04-28T13:57:41;100244.21;;;14.45;34.74
51526;BME280;37611;51.794;21.590;2023-04-28T14:01:43;100239.52;;;14.46;35.01
51526;BME280;37611;51.794;21.590;2023-04-28T14:05:46;100237.88;;;14.50;35.05
51526;BME280;37611;51.794;21.590;2023-04-28T14:09:48;100230.83;;;14.53;35.38
51526;BME280;37611;51.794;21.590;2023-04-28T14:13:50;100224.05;;;14.62;35.13
51526;BME280;37611;51.794;21.590;2023-04-28T14:17:51;100227.25;;;14.50;35.00
51526;BME280;37611;51.794;21.590;2023-04-28T14:21:53;100223.28;;;14.40;35.44
51526;BME280;37611;51.794;21.590;2023-04-28T14:25:55;100221.95;;;14.44;35.53
51526;BME280;37611;51.794;21.590;2023-04-28T14:29:59;100220.39;;;14.44;35.44
51526;BME280;37611;51.794;21.590;2023-04-28T14:34:01;100215.86;;;14.48;35.97
51526;BME280;37611;51.794;21.590;2023-04-28T14:38:04;100213.81;;;14.44;35.37
51526;BME280;37611;51.794;21.590;2023-04-28T14:42:06;100211.79;;;14.33;35.48
51526;BME280;37611;51.794;21.590;2023-04-28T14:46:09;100205.02;;;14.22;35.58
51526;BME280;37611;51.794;21.590;2023-04-28T14:50:11;100204.89;;;14.20;35.83
51526;BME280;37611;51.794;21.590;2023-04-28T14:54:13;100207.00;;;14.22;35.92
51526;BME280;37611;51.794;21.590;2023-04-28T14:58:15;100207.34;;;14.09;36.00
51526;BME280;37611;51.794;21.590;2023-04-28T15:02:17;100199.56;;;14.00;35.86
51526;BME280;37611;51.794;21.590;2023-04-28T15:06:20;100196.83;;;13.89;36.33
51526;BME280;37611;51.794;21.590;2023-04-28T15:10:22;100191.42;;;13.80;36.15
51526;BME280;37611;51.794;21.590;2023-04-28T15:14:24;100185.63;;;13.68;36.29
51526;BME280;37611;51.794;21.590;2023-04-28T15:18:26;100185.14;;;13.60;36.24
51526;BME280;37611;51.794;21.590;2023-04-28T15:22:28;100184.45;;;13.50;36.29
51526;BME280;37611;51.794;21.590;2023-04-28T15:26:29;100178.23;;;13.51;36.73
51526;BME280;37611;51.794;21.590;2023-04-28T15:30:32;100173.04;;;13.50;36.62
51526;BME280;37611;51.794;21.590;2023-04-28T15:34:34;100170.85;;;13.48;37.14
51526;BME280;37611;51.794;21.590;2023-04-28T15:38:36;100165.35;;;13.47;36.40
51526;BME280;37611;51.794;21.590;2023-04-28T15:42:39;100163.10;;;13.33;36.63
51526;BME280;37611;51.794;21.590;2023-04-28T15:46:43;100162.78;;;13.22;37.20
51526;BME280;37611;51.794;21.590;2023-04-28T15:50:45;100162.50;;;13.20;37.25
51526;BME280;37611;51.794;21.590;2023-04-28T15:54:47;100159.11;;;13.16;37.35
51526;BME280;37611;51.794;21.590;2023-04-28T15:58:49;100156.06;;;13.11;37.23
51526;BME280;37611;51.794;21.590;2023-04-28T16:02:51;100156.70;;;13.09;37.31
51526;BME280;37611;51.794;21.590;2023-04-28T16:06:54;100152.67;;;13.00;37.53
51526;BME280;37611;51.794;21.590;2023-04-28T16:10:55;100152.99;;;12.95;37.92
51526;BME280;37611;51.794;21.590;2023-04-28T16:14:59;100146.89;;;12.92;37.79
51526;BME280;37611;51.794;21.590;2023-04-28T16:19:02;100147.98;;;12.83;37.96
51526;BME280;37611;51.794;21.590;2023-04-28T16:23:07;100150.41;;;12.74;38.09
51526;BME280;37611;51.794;21.590;2023-04-28T16:27:11;100142.95;;;12.68;38.00
51526;BME280;37611;51.794;21.590;2023-04-28T16:31:14;100143.27;;;12.61;37.98
51526;BME280;37611;51.794;21.590;2023-04-28T16:35:16;100141.30;;;12.57;38.13
51526;BME280;37611;51.794;21.590;2023-04-28T16:39:18;100135.73;;;12.54;38.26
51526;BME280;37611;51.794;21.590;2023-04-28T16:43:20;100131.64;;;12.48;38.57
51526;BME280;37611;51.794;21.590;2023-04-28T16:47:22;100133.44;;;12.43;38.88
51526;BME280;37611;51.794;21.590;2023-04-28T16:51:24;100132.96;;;12.37;39.49
51526;BME280;37611;51.794;21.590;2023-04-28T16:55:25;100128.16;;;12.31;39.82
51526;BME280;37611;51.794;21.590;2023-04-28T16:59:27;100127.52;;;12.22;40.03
51526;BME280;37611;51.794;21.590;2023-04-28T17:03:31;100126.59;;;12.13;40.56
51526;BME280;37611;51.794;21.590;2023-04-28T17:07:34;100130.88;;;12.04;41.28
51526;BME280;37611;51.794;21.590;2023-04-28T17:11:37;100135.59;;;11.93;41.53
51526;BME280;37611;51.794;21.590;2023-04-28T17:15:41;100131.02;;;11.81;42.16
51526;BME280;37611;51.794;21.590;2023-04-28T17:19:43;100129.68;;;11.70;42.36
51526;BME280;37611;51.794;21.590;2023-04-28T17:23:44;100127.77;;;11.60;42.84
51526;BME280;37611;51.794;21.590;2023-04-28T17:27:46;100125.79;;;11.50;43.35
51526;BME280;37611;51.794;21.590;2023-04-28T17:31:48;100121.80;;;11.39;43.46
51526;BME280;37611;51.794;21.590;2023-04-28T17:35:49;100118.77;;;11.27;43.84
51526;BME280;37611;51.794;21.590;2023-04-28T17:39:51;100119.92;;;11.19;44.22
51526;BME280;37611;51.794;21.590;2023-04-28T17:43:53;100113.46;;;11.12;44.14
51526;BME280;37611;51.794;21.590;2023-04-28T17:47:55;100119.49;;;11.02;44.68
51526;BME280;37611;51.794;21.590;2023-04-28T17:52:00;100112.05;;;10.91;44.92
51526;BME280;37611;51.794;21.590;2023-04-28T17:56:02;100110.27;;;10.77;45.50
51526;BME280;37611;51.794;21.590;2023-04-28T18:00:05;100108.73;;;10.59;45.98
51526;BME280;37611;51.794;21.590;2023-04-28T18:04:06;100109.15;;;10.38;46.76
51526;BME280;37611;51.794;21.590;2023-04-28T18:08:08;100110.55;;;10.21;47.27
51526;BME280;37611;51.794;21.590;2023-04-28T18:12:11;100111.42;;;10.05;48.02
51526;BME280;37611;51.794;21.590;2023-04-28T18:16:12;100113.59;;;9.84;49.00
51526;BME280;37611;51.794;21.590;2023-04-28T18:20:15;100112.48;;;9.62;49.62
51526;BME280;37611;51.794;21.590;2023-04-28T18:24:17;100112.23;;;9.44;50.47
51526;BME280;37611;51.794;21.590;2023-04-28T18:28:19;100113.58;;;9.28;51.07
51526;BME280;37611;51.794;21.590;2023-04-28T18:32:21;100113.58;;;9.15;51.43
51526;BME280;37611;51.794;21.590;2023-04-28T18:36:25;100111.51;;;8.99;52.49
51526;BME280;37611;51.794;21.590;2023-04-28T18:40:37;100113.20;;;8.84;52.78
51526;BME280;37611;51.794;21.590;2023-04-28T18:44:39;100117.85;;;8.71;53.35
51526;BME280;37611;51.794;21.590;2023-04-28T18:48:41;100114.37;;;8.57;54.00
51526;BME280;37611;51.794;21.590;2023-04-28T18:52:44;100113.74;;;8.46;54.40
51526;BME280;37611;51.794;21.590;2023-04-28T18:56:47;100113.59;;;8.37;54.72
51526;BME280;37611;51.794;21.590;2023-04-28T19:00:48;100108.84;;;8.29;55.26
51526;BME280;37611;51.794;21.590;2023-04-28T19:04:50;100104.61;;;8.21;55.58
51526;BME280;37611;51.794;21.590;2023-04-28T19:08:54;100102.77;;;8.12;56.01
51526;BME280;37611;51.794;21.590;2023-04-28T19:12:56;100100.13;;;8.04;56.46
51526;BME280;37611;51.794;21.590;2023-04-28T19:16:57;100095.46;;;7.98;56.65
51526;BME280;37611;51.794;21.590;2023-04-28T19:21:03;100097.14;;;7.91;58.24
51526;BME280;37611;51.794;21.590;2023-04-28T19:25:06;100099.18;;;7.85;57.78
51526;BME280;37611;51.794;21.590;2023-04-28T19:29:08;100097.60;;;7.81;58.36
51526;BME280;37611;51.794;21.590;2023-04-28T19:33:10;100094.75;;;7.76;57.80
51526;BME280;37611;51.794;21.590;2023-04-28T19:37:11;100093.38;;;7.72;58.12
51526;BME280;37611;51.794;21.590;2023-04-28T19:41:14;100094.47;;;7.67;58.00
51526;BME280;37611;51.794;21.590;2023-04-28T19:45:16;100088.08;;;7.62;58.28
51526;BME280;37611;51.794;21.590;2023-04-28T19:49:18;100091.45;;;7.58;58.69
51526;BME280;37611;51.794;21.590;2023-04-28T19:53:19;100090.13;;;7.53;59.20
51526;BME280;37611;51.794;21.590;2023-04-28T19:57:22;100089.88;;;7.46;59.82
51526;BME280;37611;51.794;21.590;2023-04-28T20:01:24;100087.86;;;7.41;59.98
51526;BME280;37611;51.794;21.590;2023-04-28T20:05:28;100087.60;;;7.37;59.70
51526;BME280;37611;51.794;21.590;2023-04-28T20:09:32;100090.69;;;7.32;59.72
51526;BME280;37611;51.794;21.590;2023-04-28T20:13:35;100091.98;;;7.27;60.07
51526;BME280;37611;51.794;21.590;2023-04-28T20:17:38;100090.92;;;7.22;59.88
51526;BME280;37611;51.794;21.590;2023-04-28T20:21:40;100092.30;;;7.17;60.42
51526;BME280;37611;51.794;21.590;2023-04-28T20:25:42;100090.30;;;7.09;60.36
51526;BME280;37611;51.794;21.590;2023-04-28T20:29:44;100094.71;;;7.04;60.89
51526;BME280;37611;51.794;21.590;2023-04-28T20:33:46;100098.48;;;6.99;61.00
51526;BME280;37611;51.794;21.590;2023-04-28T20:37:48;100099.77;;;6.92;61.31
51526;BME280;37611;51.794;21.590;2023-04-28T20:41:50;100098.77;;;6.84;61.74
51526;BME280;37611;51.794;21.590;2023-04-28T20:45:55;100100.77;;;6.79;61.93
51526;BME280;37611;51.794;21.590;2023-04-28T20:49:58;100098.39;;;6.74;62.05
51526;BME280;37611;51.794;21.590;2023-04-28T20:54:00;100097.33;;;6.68;62.29
51526;BME280;37611;51.794;21.590;2023-04-28T20:58:04;100091.75;;;6.62;62.52
51526;BME280;37611;51.794;21.590;2023-04-28T21:02:08;100095.31;;;6.57;62.98
51526;BME280;37611;51.794;21.590;2023-04-28T21:06:12;100095.15;;;6.50;64.34
51526;BME280;37611;51.794;21.590;2023-04-28T21:10:14;100093.57;;;6.44;64.53